Time;durP1;ratioP1;P1;durP2;ratioP2;P2;SDS_P1;SDS_P2;PMS_P1;PMS_P2;Temp;Humidity;BMP_temperature;BMP_pressure;BME280_temperature;BME280_humidity;BME280_pressure;Samples;Min_cycle;Max_cycle;Signal;HPM_P1;HPM_P2
2022/02/08 00:03:31;;;;;;;1.35;0.43;;;17.70;24.80;18.00;95167.00;;;;10354168;28;46405;-75
2022/02/08 00:08:31;;;;;;;1.00;0.43;;;17.70;24.80;18.00;95164.00;;;;10337946;28;45743;-75
2022/02/08 00:13:32;;;;;;;2.38;0.50;;;17.80;24.90;18.00;95171.00;;;;10337143;28;47658;-76
2022/02/08 00:18:33;;;;;;;1.30;0.50;;;17.70;25.00;18.00;95162.00;;;;10337777;28;45544;-76
2022/02/08 00:23:34;;;;;;;2.40;0.50;;;17.80;25.30;18.00;95151.00;;;;10351292;28;47029;-76
2022/02/08 00:28:34;;;;;;;1.80;0.30;;;17.80;25.70;18.00;95160.00;;;;10378335;28;45461;-76
2022/02/08 00:33:35;;;;;;;1.15;0.38;;;17.80;25.70;18.00;95160.00;;;;10361147;28;47254;-76
2022/02/08 00:38:37;;;;;;;2.13;0.45;;;17.80;25.80;18.00;95168.00;;;;10395861;28;45173;-76
2022/02/08 00:44:00;;;;;;;1.92;0.50;;;17.80;25.60;18.00;95165.00;;;;10382815;28;45472;-76
2022/02/08 00:49:03;;;;;;;0.95;0.32;;;17.80;25.80;18.00;95158.00;;;;10371067;28;47068;-76
2022/02/08 00:54:04;;;;;;;2.03;0.50;;;17.80;25.60;18.00;95165.00;;;;10367562;28;46802;-75
2022/02/08 00:59:05;;;;;;;1.80;0.43;;;17.80;25.50;17.90;95179.00;;;;10367764;28;47104;-75
2022/02/08 01:04:10;;;;;;;3.58;0.70;;;17.70;25.40;17.90;95184.00;;;;10383637;28;45405;-76
2022/02/08 01:09:15;;;;;;;1.30;0.50;;;17.70;25.40;17.90;95185.00;;;;10366935;28;48365;-76
2022/02/08 01:14:16;;;;;;;2.30;0.47;;;17.70;25.10;17.90;95183.00;;;;10383989;28;45339;-76
2022/02/08 01:19:20;;;;;;;2.50;0.57;;;17.60;25.20;17.90;95189.00;;;;10383765;28;45397;-76
2022/02/08 01:24:20;;;;;;;1.98;0.40;;;17.60;25.10;17.90;95177.00;;;;10383196;28;45420;-76
2022/02/08 01:29:36;;;;;;;1.55;0.50;;;17.60;25.20;17.90;95192.00;;;;10366812;28;47308;-76
2022/02/08 01:34:43;;;;;;;2.00;0.63;;;17.60;25.20;17.80;95180.00;;;;10367602;28;47387;-76
2022/02/08 01:40:01;;;;;;;1.33;0.40;;;17.50;25.10;17.80;95187.00;;;;10367150;28;48345;-76
2022/02/08 01:45:23;;;;;;;1.60;0.50;;;17.50;25.00;17.80;95201.00;;;;10368023;28;47257;-75
2022/02/08 01:50:24;;;;;;;4.10;0.60;;;17.50;25.10;17.80;95207.00;;;;10368315;28;47356;-75
2022/02/08 01:55:25;;;;;;;2.08;0.60;;;17.50;24.90;17.70;95208.00;;;;10364876;28;47524;-75
2022/02/08 02:00:27;;;;;;;2.53;0.70;;;17.50;24.90;17.70;95216.00;;;;10380697;28;46300;-75
2022/02/08 02:05:28;;;;;;;2.97;0.75;;;17.40;24.90;17.70;95220.00;;;;10364477;28;47050;-75
2022/02/08 02:10:29;;;;;;;2.53;0.60;;;17.40;25.50;17.70;95221.00;;;;10364594;28;47309;-76
2022/02/08 02:15:31;;;;;;;2.22;0.68;;;17.40;25.00;17.70;95220.00;;;;10380906;28;47084;-76
2022/02/08 02:20:33;;;;;;;2.58;0.60;;;17.40;25.00;17.70;95217.00;;;;10358164;28;48326;-76
2022/02/08 02:25:34;;;;;;;1.65;0.60;;;17.40;25.10;17.70;95218.00;;;;10324475;28;47273;-76
2022/02/08 02:30:36;;;;;;;2.72;0.70;;;17.40;25.10;17.70;95232.00;;;;10339699;28;45140;-75
2022/02/08 02:35:37;;;;;;;1.30;0.60;;;17.30;25.10;17.70;95222.00;;;;10322914;28;47281;-76
2022/02/08 02:40:42;;;;;;;1.77;0.50;;;17.30;25.00;17.60;95221.00;;;;10339819;28;46428;-75
2022/02/08 02:45:42;;;;;;;2.45;0.70;;;17.30;25.00;17.60;95242.00;;;;10311741;23;47131;-78
2022/02/08 02:50:50;;;;;;;2.40;0.90;;;17.30;25.00;17.60;95243.00;;;;10314265;28;45524;-75
2022/02/08 02:55:51;;;;;;;5.60;1.55;;;17.30;24.90;17.60;95236.00;;;;10312400;28;47100;-75
2022/02/08 03:01:30;;;;;;;4.53;1.30;;;17.30;24.80;17.60;95216.00;;;;10296384;28;47605;-76
2022/02/08 03:22:15;;;;;;;2.47;0.65;;;17.20;25.00;17.50;95224.00;;;;10332289;28;45237;-76
2022/02/08 03:27:16;;;;;;;1.33;0.47;;;17.20;25.10;17.50;95232.00;;;;10336483;28;45485;-75
2022/02/08 03:32:19;;;;;;;2.50;0.40;;;17.20;25.10;17.50;95241.00;;;;10335908;28;46210;-76
2022/02/08 03:37:20;;;;;;;2.70;0.60;;;17.20;25.00;17.50;95236.00;;;;10336666;28;45185;-76
2022/02/08 03:42:26;;;;;;;1.55;0.47;;;17.20;25.10;17.50;95252.00;;;;10335537;28;47392;-75
2022/02/08 03:47:26;;;;;;;1.10;0.50;;;17.20;24.90;17.40;95258.00;;;;10335994;28;46656;-76
2022/02/08 03:52:27;;;;;;;2.63;0.40;;;17.20;25.10;17.50;95257.00;;;;10336012;28;45999;-76
2022/02/08 03:57:28;;;;;;;1.20;0.40;;;17.20;25.20;17.50;95265.00;;;;10335271;28;48303;-76
2022/02/08 04:02:42;;;;;;;3.38;0.57;;;17.10;25.00;17.50;95250.00;;;;10335385;28;47841;-76
2022/02/08 04:07:48;;;;;;;2.63;0.40;;;17.10;25.00;17.40;95262.00;;;;10336731;28;45439;-76
2022/02/08 04:31:32;;;;;;;1.77;0.60;;;17.10;24.90;17.40;95289.00;;;;10304480;28;45119;-76
2022/02/08 04:39:01;;;;;;;1.40;0.30;;;17.00;24.50;17.30;95276.00;;;;10304232;28;45877;-76
2022/02/08 04:49:36;;;;;;;0.77;0.40;;;17.00;24.70;17.30;95293.00;;;;10293343;28;45238;-75
2022/02/08 04:54:52;;;;;;;2.95;0.50;;;17.00;24.90;17.30;95295.00;;;;10300250;28;47285;-75
2022/02/08 05:42:30;;;;;;;1.75;0.80;;;17.10;26.20;17.50;95305.00;;;;10340871;28;45139;-76
2022/02/08 05:47:31;;;;;;;1.77;0.65;;;17.20;26.10;17.50;95290.00;;;;10340820;28;47158;-76
2022/02/08 05:57:33;;;;;;;1.75;0.50;;;17.30;26.60;17.60;95300.00;;;;10339064;28;45162;-76
2022/02/08 06:02:33;;;;;;;1.77;0.40;;;17.40;26.40;17.60;95309.00;;;;10338908;28;47359;-76
2022/02/08 06:07:34;;;;;;;1.98;0.70;;;17.40;26.20;17.60;95288.00;;;;10338788;28;45321;-76
2022/02/08 06:12:55;;;;;;;1.42;0.60;;;17.40;26.00;17.60;95306.00;;;;10338701;28;48125;-76
2022/02/08 06:18:00;;;;;;;2.15;0.90;;;17.40;26.00;17.60;95306.00;;;;10322230;28;47254;-77
2022/02/08 06:23:02;;;;;;;2.97;0.98;;;17.40;25.70;17.60;95326.00;;;;10272921;28;48093;-76
2022/02/08 06:28:03;;;;;;;2.58;0.90;;;17.40;25.50;17.60;95333.00;;;;10259546;28;47275;-76
2022/02/08 06:33:05;;;;;;;4.10;0.90;;;17.40;25.30;17.60;95322.00;;;;10275229;28;45254;-76
2022/02/08 06:38:10;;;;;;;3.25;0.80;;;17.40;25.10;17.70;95337.00;;;;10259363;28;47252;-77
2022/02/08 06:43:10;;;;;;;6.57;2.80;;;17.50;24.80;17.70;95345.00;;;;10274125;28;47694;-77
2022/02/08 06:48:12;;;;;;;8.02;3.97;;;17.50;24.90;17.70;95339.00;;;;10274341;28;46951;-75
2022/02/08 06:53:12;;;;;;;9.05;4.95;;;17.50;24.60;17.70;95324.00;;;;10274999;28;47475;-75
2022/02/08 06:58:15;;;;;;;9.13;4.10;;;17.50;24.70;17.70;95343.00;;;;10286719;28;45462;-75
2022/02/08 07:03:17;;;;;;;5.60;2.67;;;17.60;24.80;17.50;95332.00;;;;10283549;28;47485;-75
2022/02/08 07:08:18;;;;;;;5.07;2.30;;;17.50;24.30;17.70;95322.00;;;;10284238;28;46911;-75
2022/02/08 07:13:18;;;;;;;3.47;1.80;;;17.50;24.10;17.60;95352.00;;;;10283420;28;47239;-75
2022/02/08 07:18:19;;;;;;;4.03;1.80;;;17.50;24.30;17.60;95335.00;;;;10291958;28;46853;-75
2022/02/08 07:23:20;;;;;;;3.83;1.27;;;17.40;24.50;17.60;95339.00;;;;10322544;28;47620;-78
2022/02/08 07:28:21;;;;;;;2.58;1.05;;;17.40;24.60;17.60;95342.00;;;;10315113;28;47287;-77
2022/02/08 07:33:22;;;;;;;2.90;1.02;;;17.40;24.80;17.60;95347.00;;;;10265808;28;48059;-76
2022/02/08 07:38:29;;;;;;;2.08;0.80;;;17.30;24.50;17.60;95349.00;;;;10271813;28;45351;-77
2022/02/08 07:43:29;;;;;;;3.55;0.90;;;17.40;24.60;17.50;95347.00;;;;10273115;28;46968;-77
2022/02/08 07:48:47;;;;;;;2.00;0.80;;;17.30;24.60;17.50;95334.00;;;;10295957;28;47049;-75
2022/02/08 07:53:47;;;;;;;3.55;0.98;;;17.30;24.80;17.50;95355.00;;;;10313913;28;47552;-76
2022/02/08 07:58:48;;;;;;;4.50;1.27;;;17.30;24.60;17.50;95364.00;;;;10316439;28;46904;-75
2022/02/08 08:03:49;;;;;;;3.90;1.80;;;17.30;24.90;17.50;95367.00;;;;10316741;28;46969;-75
2022/02/08 08:08:51;;;;;;;3.45;1.48;;;17.30;24.80;17.50;95356.00;;;;10317380;28;45404;-75
2022/02/08 08:14:04;;;;;;;3.15;1.25;;;17.20;24.70;17.40;95348.00;;;;10318251;28;47052;-75
2022/02/08 08:24:13;;;;;;;3.03;1.08;;;17.30;25.00;17.50;95353.00;;;;10350597;28;45198;-75
2022/02/08 08:29:14;;;;;;;2.58;1.10;;;17.20;25.00;17.50;95341.00;;;;10356351;28;45272;-75
2022/02/08 08:34:14;;;;;;;2.78;0.88;;;17.30;24.90;17.50;95340.00;;;;10355538;28;46954;-75
2022/02/08 08:39:18;;;;;;;3.10;0.98;;;17.40;25.00;17.50;95350.00;;;;10341546;28;46989;-75
2022/02/08 08:44:41;;;;;;;3.25;0.90;;;17.30;25.00;17.60;95356.00;;;;10359550;22;46853;-75
2022/02/08 08:54:49;;;;;;;2.67;0.82;;;17.40;25.00;17.60;95323.00;;;;10350219;28;45265;-74
2022/02/08 08:59:50;;;;;;;2.55;0.80;;;17.50;25.40;17.70;95346.00;;;;10349158;28;47200;-75
2022/02/08 09:04:52;;;;;;;3.40;0.70;;;17.50;24.70;17.80;95352.00;;;;10350288;28;47154;-74
2022/02/08 09:09:58;;;;;;;1.65;0.70;;;17.60;24.70;17.80;95344.00;;;;10361530;28;47018;-76
2022/02/08 09:15:19;;;;;;;2.85;1.02;;;17.70;24.60;17.90;95353.00;;;;10388329;28;45487;-75
2022/02/08 09:25:51;;;;;;;3.13;0.93;;;17.80;24.70;17.90;95346.00;;;;10407232;28;45132;-76
2022/02/08 09:30:58;;;;;;;2.72;0.93;;;17.90;24.80;17.90;95350.00;;;;10391967;28;46710;-74
2022/02/08 09:35:58;;;;;;;3.50;0.88;;;17.80;24.60;17.90;95338.00;;;;10361027;28;47337;-75
2022/02/08 09:41:00;;;;;;;2.20;0.75;;;17.80;24.70;18.00;95328.00;;;;10346679;28;46734;-74
2022/02/08 09:46:04;;;;;;;5.10;0.70;;;17.90;25.50;18.10;95342.00;;;;10348182;28;47158;-77
2022/02/08 09:51:10;;;;;;;6.88;0.77;;;18.10;25.50;18.10;95334.00;;;;10346903;28;47286;-71
2022/02/08 09:56:13;;;;;;;6.28;0.70;;;18.10;25.30;18.20;95317.00;;;;10348452;28;47973;-77
2022/02/08 10:01:21;;;;;;;3.92;0.70;;;18.30;25.50;18.30;95312.00;;;;10347399;28;47334;-76
2022/02/08 10:06:26;;;;;;;4.15;0.77;;;18.40;25.60;18.30;95318.00;;;;10360948;28;45467;-75
2022/02/08 10:11:55;;;;;;;8.15;1.00;;;18.40;25.90;18.40;95313.00;;;;10350938;28;48504;-76
2022/02/08 10:22:17;;;;;;;14.02;1.52;;;18.60;26.00;18.50;95337.00;;;;10381877;28;45168;-70
2022/02/08 10:27:30;;;;;;;8.98;1.00;;;18.60;25.70;18.50;95333.00;;;;10339286;28;47640;-72
2022/02/08 10:37:37;;;;;;;6.68;0.90;;;18.60;25.80;18.50;95332.00;;;;10341183;28;47383;-71
2022/02/08 10:38:08;;;;;;;5.88;0.93;;;18.70;25.80;18.50;95321.00;;;;10357294;28;45852;-72
2022/02/08 10:43:15;;;;;;;2.00;0.60;;;18.70;25.90;18.60;95320.00;;;;10341834;28;47444;-73
2022/02/08 10:48:22;;;;;;;3.25;0.70;;;18.70;25.80;18.50;95319.00;;;;10348481;28;47772;-75
2022/02/08 10:53:26;;;;;;;4.45;0.50;;;18.70;25.90;18.50;95311.00;;;;10350816;28;46565;-75
2022/02/08 11:03:51;;;;;;;4.72;1.00;;;18.60;25.70;18.40;95299.00;;;;10387585;28;45128;-74
2022/02/08 11:09:10;;;;;;;2.28;0.40;;;18.50;25.70;18.40;95296.00;;;;10393118;28;47154;-74
2022/02/08 11:24:29;;;;;;;6.18;1.02;;;18.40;25.90;18.40;95280.00;;;;10356552;28;45265;-73
2022/02/08 11:29:36;;;;;;;4.10;1.00;;;18.40;25.90;18.40;95277.00;;;;10342279;28;46735;-73
2022/02/08 11:45:46;;;;;;;2.67;1.25;;;18.30;25.90;18.30;95261.00;;;;10357631;28;45220;-73
2022/02/08 12:01:18;;;;;;;5.47;1.55;;;18.20;25.60;18.20;95233.00;;;;10357947;28;45469;-72
2022/02/08 12:06:32;;;;;;;2.60;1.00;;;18.20;25.70;18.20;95242.00;;;;10363949;28;45192;-73
2022/02/08 12:39:45;;;;;;;6.72;2.50;;;18.00;25.20;18.20;95202.00;;;;10398708;28;45185;-73
2022/02/08 12:54:21;;;;;;;5.00;1.98;;;18.20;25.60;18.20;95201.00;;;;10401772;28;45262;-72
2022/02/08 14:08:10;;;;;;;0.85;0.30;;;18.50;24.20;18.50;95166.00;;;;10343588;28;45414;-72
2022/02/08 14:35:25;;;;;;;0.90;0.30;;;18.40;23.70;18.40;95171.00;;;;10353565;28;45622;-73
2022/02/08 15:11:35;;;;;;;2.58;0.60;;;18.30;23.30;18.40;95145.00;;;;10353698;28;45105;-76
2022/02/08 15:16:36;;;;;;;1.05;0.40;;;18.30;23.20;18.40;95157.00;;;;10338422;28;46873;-77
2022/02/08 15:21:37;;;;;;;0.90;0.40;;;18.30;23.30;18.40;95157.00;;;;10353460;28;48155;-76
2022/02/08 15:26:43;;;;;;;1.65;0.50;;;18.30;23.30;18.40;95148.00;;;;10396038;28;45525;-75
2022/02/08 15:31:44;;;;;;;1.10;0.57;;;18.30;23.20;18.30;95150.00;;;;10380156;28;46870;-76
2022/02/08 15:36:44;;;;;;;1.00;0.65;;;18.30;23.30;18.30;95136.00;;;;10378757;28;47010;-76
2022/02/08 15:41:46;;;;;;;1.40;0.40;;;18.30;23.20;18.30;95156.00;;;;10396200;28;45237;-76
2022/02/08 15:46:48;;;;;;;1.77;0.60;;;18.40;23.40;18.30;95158.00;;;;10378727;28;46875;-76
2022/02/08 15:51:57;;;;;;;1.52;0.50;;;18.30;23.30;18.30;95144.00;;;;10395560;28;46232;-76
2022/02/08 16:07:13;;;;;;;1.52;0.55;;;18.30;23.40;18.30;95150.00;;;;10395100;28;45384;-76
2022/02/08 16:27:37;;;;;;;1.95;0.75;;;18.30;24.00;18.30;95147.00;;;;10357978;28;45375;-76
2022/02/08 16:33:01;;;;;;;0.95;0.50;;;18.20;23.50;18.30;95133.00;;;;10356789;28;48057;-76
2022/02/08 16:59:12;;;;;;;1.77;0.70;;;18.40;24.90;18.60;95143.00;;;;10354358;28;45053;-79
2022/02/08 17:04:12;;;;;;;2.53;0.80;;;18.50;25.40;18.70;95125.00;;;;10340803;28;47215;-76
2022/02/08 17:09:18;;;;;;;2.25;0.70;;;18.50;25.60;18.70;95132.00;;;;10341468;28;47216;-76
2022/02/08 17:14:33;;;;;;;1.35;0.70;;;18.60;26.20;18.70;95139.00;;;;10341194;28;48136;-79
2022/02/08 17:19:55;;;;;;;2.85;0.95;;;18.60;26.50;18.70;95113.00;;;;10358347;28;45344;-74
2022/02/08 17:50:49;;;;;;;3.22;1.05;;;18.80;28.00;18.90;95140.00;;;;10356057;28;45862;-78
2022/02/08 17:55:50;;;;;;;16.15;3.70;;;18.90;28.20;19.00;95144.00;;;;10357128;28;45288;-77
2022/02/08 18:00:51;;;;;;;12.43;3.38;;;18.90;28.70;19.00;95141.00;;;;10347667;28;47022;-76
2022/02/08 18:05:51;;;;;;;8.88;2.67;;;19.00;31.40;19.10;95149.00;;;;10346120;28;47977;-78
2022/02/08 18:10:56;;;;;;;11.00;3.10;;;19.00;29.70;19.10;95157.00;;;;10343110;28;46952;-79
2022/02/08 18:15:59;;;;;;;5.55;2.17;;;19.10;29.00;19.10;95156.00;;;;10361490;28;47337;-78
2022/02/08 18:55:29;;;;;;;4.25;1.33;;;20.00;28.70;21.10;95149.00;;;;10357907;28;45197;-76
2022/02/08 19:04:10;;;;;;;3.38;1.00;;;20.70;29.40;18.90;95134.00;;;;10356525;28;45645;-77
2022/02/08 19:19:54;;;;;;;2.60;1.33;;;19.40;28.60;18.50;95150.00;;;;10365894;28;45871;-79
2022/02/08 19:24:56;;;;;;;4.60;1.10;;;19.30;28.40;18.40;95151.00;;;;10349735;28;46329;-79
2022/02/08 19:29:56;;;;;;;2.78;1.33;;;19.10;28.20;18.40;95142.00;;;;10348451;28;47013;-78
2022/02/08 19:34:57;;;;;;;2.00;0.90;;;19.00;28.00;18.40;95145.00;;;;10348068;28;46936;-78
2022/02/08 19:39:58;;;;;;;1.20;0.80;;;18.80;27.80;18.30;95149.00;;;;10347687;28;47210;-78
2022/02/08 19:45:08;;;;;;;2.20;0.80;;;18.80;27.80;18.30;95150.00;;;;10345689;28;47931;-78
2022/02/08 19:50:09;;;;;;;0.70;0.57;;;18.70;27.80;18.20;95144.00;;;;10363914;28;46490;-79
2022/02/08 19:55:26;;;;;;;3.22;0.80;;;18.60;27.40;18.20;95154.00;;;;10346900;28;48450;-78
2022/02/08 20:00:32;;;;;;;1.52;0.68;;;18.60;27.30;18.20;95169.00;;;;10348531;28;47515;-78
2022/02/08 20:05:33;;;;;;;1.83;0.80;;;18.50;27.30;18.20;95160.00;;;;10362493;28;45439;-78
2022/02/08 20:10:34;;;;;;;0.95;0.70;;;18.50;27.40;18.20;95153.00;;;;10346698;28;47519;-78
2022/02/08 20:15:34;;;;;;;1.63;0.70;;;18.40;27.40;18.10;95146.00;;;;10345921;28;47442;-79
2022/02/08 20:20:35;;;;;;;1.52;1.00;;;18.40;27.40;18.10;95168.00;;;;10350688;28;47205;-79
2022/02/08 20:25:43;;;;;;;1.92;0.85;;;18.40;27.10;18.10;95160.00;;;;10346506;28;48504;-79
2022/02/08 20:30:44;;;;;;;1.17;0.73;;;18.40;27.20;18.10;95166.00;;;;10345780;28;46958;-79
2022/02/08 20:35:45;;;;;;;2.05;0.80;;;18.30;27.30;18.10;95167.00;;;;10362479;28;45433;-79
2022/02/08 20:40:47;;;;;;;1.67;0.93;;;18.30;27.20;18.10;95168.00;;;;10345720;28;47105;-78
2022/02/08 20:45:48;;;;;;;0.90;0.60;;;18.30;27.30;18.00;95164.00;;;;10370237;23;46392;-79
2022/02/08 20:50:51;;;;;;;1.52;0.80;;;18.30;27.30;18.00;95177.00;;;;10333509;28;47637;-79
2022/02/08 20:56:07;;;;;;;1.80;0.73;;;18.20;27.30;18.00;95172.00;;;;10337745;28;47030;-78
2022/02/08 21:01:08;;;;;;;1.70;0.75;;;18.20;27.30;18.00;95157.00;;;;10344898;28;47196;-80
2022/02/08 21:06:14;;;;;;;0.85;0.55;;;18.20;27.40;18.00;95158.00;;;;10342685;28;47265;-79
2022/02/08 21:11:15;;;;;;;1.83;0.80;;;18.20;27.40;18.00;95158.00;;;;10343119;28;47003;-78
2022/02/08 21:16:30;;;;;;;1.25;0.65;;;18.10;27.40;17.90;95161.00;;;;10342742;28;47334;-78
2022/02/08 21:21:31;;;;;;;1.15;0.70;;;18.10;27.50;17.90;95161.00;;;;10356796;28;47214;-78
2022/02/08 21:26:36;;;;;;;1.02;0.57;;;18.00;27.50;17.80;95159.00;;;;10346959;28;48160;-78
2022/02/08 21:52:45;;;;;;;1.10;0.57;;;17.80;27.40;17.70;95145.00;;;;10358845;28;45121;-78
2022/02/08 21:57:53;;;;;;;1.33;0.60;;;17.80;27.40;17.70;95133.00;;;;10342776;28;47140;-78
2022/02/08 22:02:54;;;;;;;0.95;0.50;;;17.80;27.50;17.70;95139.00;;;;10342520;28;47342;-78
2022/02/08 22:18:35;;;;;;;1.83;0.45;;;17.70;27.40;17.60;95124.00;;;;10358190;28;45046;-78
2022/02/08 22:34:00;;;;;;;0.70;0.50;;;17.60;27.50;17.60;95130.00;;;;10357040;28;45222;-78
2022/02/08 22:39:13;;;;;;;1.45;0.82;;;17.60;27.50;17.60;95131.00;;;;10341279;28;48163;-78
2022/02/08 22:44:23;;;;;;;1.08;0.55;;;17.60;27.50;17.50;95139.00;;;;10341304;28;47267;-78
2022/02/08 22:49:25;;;;;;;0.93;0.45;;;17.50;27.50;17.50;95146.00;;;;10341740;28;48141;-78
2022/02/08 22:54:26;;;;;;;0.80;0.40;;;17.50;27.50;17.50;95139.00;;;;10339619;28;48370;-78
2022/02/08 22:59:27;;;;;;;1.15;0.50;;;17.50;27.50;17.50;95133.00;;;;10339920;28;46844;-78
2022/02/08 23:04:30;;;;;;;0.70;0.45;;;17.50;27.40;17.50;95145.00;;;;10339534;28;47049;-78
2022/02/08 23:09:44;;;;;;;0.65;0.40;;;17.40;27.50;17.50;95138.00;;;;10340068;28;46910;-78
2022/02/08 23:41:06;;;;;;;1.63;0.40;;;17.30;27.70;17.40;95129.00;;;;10355191;28;45708;-78
2022/02/08 23:46:08;;;;;;;1.10;0.50;;;17.30;27.70;17.40;95124.00;;;;10337824;28;48157;-78
2022/02/08 23:51:17;;;;;;;1.00;0.40;;;17.30;27.80;17.40;95108.00;;;;10338362;28;48282;-78
2022/02/08 23:56:29;;;;;;;1.15;0.43;;;17.30;27.70;17.30;95102.00;;;;10338792;28;48225;-79
